sensor_id;sensor_type;location;lat;lon;timestamp;pressure;altitude;pressure_sealevel;temperature;humidity
19783;BME280;10051;40.294;-3.754;2022-11-09T00:00:32;94217.00;;;14.55;100.00
19783;BME280;10051;40.294;-3.754;2022-11-09T00:02:58;94189.81;;;14.41;100.00
19783;BME280;10051;40.294;-3.754;2022-11-09T00:05:23;94186.66;;;14.30;100.00
19783;BME280;10051;40.294;-3.754;2022-11-09T00:07:48;94252.06;;;14.84;100.00
19783;BME280;10051;40.294;-3.754;2022-11-09T00:10:14;94209.91;;;14.65;100.00
19783;BME280;10051;40.294;-3.754;2022-11-09T00:12:40;94216.75;;;14.66;100.00
19783;BME280;10051;40.294;-3.754;2022-11-09T00:15:05;94241.63;;;14.79;100.00
19783;BME280;10051;40.294;-3.754;2022-11-09T00:17:31;94245.47;;;14.72;100.00
19783;BME280;10051;40.294;-3.754;2022-11-09T00:19:56;94230.97;;;14.70;100.00
19783;BME280;10051;40.294;-3.754;2022-11-09T00:22:22;94219.53;;;14.61;100.00
19783;BME280;10051;40.294;-3.754;2022-11-09T00:24:47;94193.56;;;14.40;100.00
19783;BME280;10051;40.294;-3.754;2022-11-09T00:27:13;94217.16;;;14.59;100.00
19783;BME280;10051;40.294;-3.754;2022-11-09T00:29:38;94250.94;;;14.76;100.00
19783;BME280;10051;40.294;-3.754;2022-11-09T00:32:04;94249.25;;;14.80;100.00
19783;BME280;10051;40.294;-3.754;2022-11-09T00:34:29;94181.88;;;14.64;100.00
19783;BME280;10051;40.294;-3.754;2022-11-09T00:36:55;94232.97;;;14.96;100.00
19783;BME280;10051;40.294;-3.754;2022-11-09T00:39:20;94153.22;;;14.34;100.00
19783;BME280;10051;40.294;-3.754;2022-11-09T00:41:46;94228.06;;;14.80;100.00
19783;BME280;10051;40.294;-3.754;2022-11-09T00:44:11;94243.78;;;14.77;100.00
19783;BME280;10051;40.294;-3.754;2022-11-09T00:46:37;94183.13;;;14.35;100.00
19783;BME280;10051;40.294;-3.754;2022-11-09T00:49:02;94239.00;;;14.65;100.00
19783;BME280;10051;40.294;-3.754;2022-11-09T00:51:28;94162.44;;;14.14;100.00
19783;BME280;10051;40.294;-3.754;2022-11-09T00:53:55;94244.69;;;14.72;100.00
19783;BME280;10051;40.294;-3.754;2022-11-09T00:56:21;94244.22;;;14.70;100.00
19783;BME280;10051;40.294;-3.754;2022-11-09T00:58:47;94198.13;;;14.48;100.00
19783;BME280;10051;40.294;-3.754;2022-11-09T01:01:14;94208.94;;;14.61;100.00
19783;BME280;10051;40.294;-3.754;2022-11-09T01:03:41;94200.38;;;14.55;100.00
19783;BME280;10051;40.294;-3.754;2022-11-09T01:06:07;94222.91;;;14.75;100.00
19783;BME280;10051;40.294;-3.754;2022-11-09T01:08:34;94222.81;;;14.66;100.00
19783;BME280;10051;40.294;-3.754;2022-11-09T01:11:04;94219.06;;;14.58;100.00
19783;BME280;10051;40.294;-3.754;2022-11-09T01:13:30;94221.34;;;14.51;100.00
19783;BME280;10051;40.294;-3.754;2022-11-09T01:15:56;94208.72;;;14.48;100.00
19783;BME280;10051;40.294;-3.754;2022-11-09T01:18:21;94226.50;;;14.56;100.00
19783;BME280;10051;40.294;-3.754;2022-11-09T01:20:48;94214.97;;;14.52;100.00
19783;BME280;10051;40.294;-3.754;2022-11-09T01:23:15;94224.34;;;14.58;100.00
19783;BME280;10051;40.294;-3.754;2022-11-09T01:25:41;94199.63;;;14.40;100.00
19783;BME280;10051;40.294;-3.754;2022-11-09T01:28:07;94210.28;;;14.49;100.00
19783;BME280;10051;40.294;-3.754;2022-11-09T01:30:38;94162.31;;;14.19;100.00
19783;BME280;10051;40.294;-3.754;2022-11-09T01:33:06;94151.53;;;14.16;100.00
19783;BME280;10051;40.294;-3.754;2022-11-09T01:35:33;94225.25;;;14.54;100.00
19783;BME280;10051;40.294;-3.754;2022-11-09T01:37:58;94242.44;;;14.65;100.00
19783;BME280;10051;40.294;-3.754;2022-11-09T01:40:26;94206.53;;;14.50;100.00
19783;BME280;10051;40.294;-3.754;2022-11-09T01:42:52;94178.78;;;14.16;100.00
19783;BME280;10051;40.294;-3.754;2022-11-09T01:45:28;94190.63;;;14.41;100.00
19783;BME280;10051;40.294;-3.754;2022-11-09T01:48:08;94220.50;;;14.65;100.00
19783;BME280;10051;40.294;-3.754;2022-11-09T01:50:48;94197.66;;;14.46;100.00
19783;BME280;10051;40.294;-3.754;2022-11-09T01:53:17;94230.75;;;14.66;100.00
19783;BME280;10051;40.294;-3.754;2022-11-09T01:55:46;94232.44;;;14.62;100.00
19783;BME280;10051;40.294;-3.754;2022-11-09T01:58:21;94212.97;;;14.35;100.00
19783;BME280;10051;40.294;-3.754;2022-11-09T02:00:50;94214.78;;;14.49;100.00
19783;BME280;10051;40.294;-3.754;2022-11-09T02:03:31;94207.69;;;14.35;100.00
19783;BME280;10051;40.294;-3.754;2022-11-09T02:06:02;94203.81;;;14.33;100.00
19783;BME280;10051;40.294;-3.754;2022-11-09T02:08:29;94196.56;;;14.24;100.00
19783;BME280;10051;40.294;-3.754;2022-11-09T02:11:01;94233.59;;;14.47;100.00
19783;BME280;10051;40.294;-3.754;2022-11-09T02:13:29;94235.88;;;14.40;100.00
19783;BME280;10051;40.294;-3.754;2022-11-09T02:16:05;94175.16;;;13.89;100.00
19783;BME280;10051;40.294;-3.754;2022-11-09T02:18:55;94239.97;;;14.46;100.00
19783;BME280;10051;40.294;-3.754;2022-11-09T02:21:29;94141.25;;;13.91;100.00
19783;BME280;10051;40.294;-3.754;2022-11-09T02:24:07;94091.97;;;13.50;100.00
19783;BME280;10051;40.294;-3.754;2022-11-09T02:26:48;94122.59;;;13.65;100.00
19783;BME280;10051;40.294;-3.754;2022-11-09T02:29:34;94157.75;;;13.88;100.00
19783;BME280;10051;40.294;-3.754;2022-11-09T02:32:06;94251.84;;;14.49;100.00
19783;BME280;10051;40.294;-3.754;2022-11-09T02:34:42;94251.41;;;14.33;100.00
19783;BME280;10051;40.294;-3.754;2022-11-09T02:40:43;94106.56;;;13.47;100.00
19783;BME280;10051;40.294;-3.754;2022-11-09T02:43:43;94060.66;;;13.20;100.00
19783;BME280;10051;40.294;-3.754;2022-11-09T02:49:21;94171.44;;;13.90;100.00
19783;BME280;10051;40.294;-3.754;2022-11-09T02:54:45;94084.50;;;13.29;100.00
19783;BME280;10051;40.294;-3.754;2022-11-09T02:57:10;94084.88;;;13.36;100.00
19783;BME280;10051;40.294;-3.754;2022-11-09T03:00:06;94200.91;;;14.20;100.00
19783;BME280;10051;40.294;-3.754;2022-11-09T03:02:42;94082.81;;;13.33;100.00
19783;BME280;10051;40.294;-3.754;2022-11-09T03:05:29;94060.88;;;13.10;100.00
19783;BME280;10051;40.294;-3.754;2022-11-09T03:08:05;94070.31;;;13.25;100.00
19783;BME280;10051;40.294;-3.754;2022-11-09T03:10:33;94105.69;;;13.52;100.00
19783;BME280;10051;40.294;-3.754;2022-11-09T03:13:10;94098.47;;;13.44;100.00
19783;BME280;10051;40.294;-3.754;2022-11-09T03:16:03;94116.03;;;13.62;100.00
19783;BME280;10051;40.294;-3.754;2022-11-09T03:18:28;94229.81;;;14.39;100.00
19783;BME280;10051;40.294;-3.754;2022-11-09T03:21:05;94241.91;;;14.54;100.00
19783;BME280;10051;40.294;-3.754;2022-11-09T03:23:38;94072.25;;;13.33;100.00
19783;BME280;10051;40.294;-3.754;2022-11-09T03:26:09;94108.09;;;13.62;100.00
19783;BME280;10051;40.294;-3.754;2022-11-09T03:28:45;94085.84;;;13.41;100.00
19783;BME280;10051;40.294;-3.754;2022-11-09T03:31:16;94098.97;;;13.46;100.00
19783;BME280;10051;40.294;-3.754;2022-11-09T03:33:56;94243.81;;;14.40;100.00
19783;BME280;10051;40.294;-3.754;2022-11-09T03:42:42;94227.13;;;14.31;100.00
19783;BME280;10051;40.294;-3.754;2022-11-09T03:46:02;94225.25;;;14.31;100.00
19783;BME280;10051;40.294;-3.754;2022-11-09T03:49:06;94227.47;;;14.38;100.00
19783;BME280;10051;40.294;-3.754;2022-11-09T03:51:47;94044.34;;;13.04;100.00
19783;BME280;10051;40.294;-3.754;2022-11-09T03:54:22;94040.91;;;13.18;100.00
19783;BME280;10051;40.294;-3.754;2022-11-09T04:00:19;94238.94;;;14.33;100.00
19783;BME280;10051;40.294;-3.754;2022-11-09T04:10:01;94088.59;;;13.35;100.00
19783;BME280;10051;40.294;-3.754;2022-11-09T04:19:41;94141.69;;;13.62;100.00
19783;BME280;10051;40.294;-3.754;2022-11-09T04:22:59;94224.50;;;14.17;100.00
19783;BME280;10051;40.294;-3.754;2022-11-09T04:28:49;94067.72;;;13.11;100.00
19783;BME280;10051;40.294;-3.754;2022-11-09T04:31:17;94101.31;;;13.33;100.00
19783;BME280;10051;40.294;-3.754;2022-11-09T04:37:15;94203.88;;;14.05;100.00
19783;BME280;10051;40.294;-3.754;2022-11-09T04:39:52;94090.56;;;13.16;100.00
19783;BME280;10051;40.294;-3.754;2022-11-09T04:45:03;94118.13;;;13.37;100.00
19783;BME280;10051;40.294;-3.754;2022-11-09T04:47:28;94200.72;;;13.80;100.00
19783;BME280;10051;40.294;-3.754;2022-11-09T04:49:54;94248.72;;;14.10;100.00
19783;BME280;10051;40.294;-3.754;2022-11-09T04:52:19;94226.59;;;14.06;100.00
19783;BME280;10051;40.294;-3.754;2022-11-09T04:54:46;94229.25;;;14.06;100.00
19783;BME280;10051;40.294;-3.754;2022-11-09T04:57:11;94260.75;;;14.16;100.00
19783;BME280;10051;40.294;-3.754;2022-11-09T04:59:36;94237.28;;;14.01;100.00
19783;BME280;10051;40.294;-3.754;2022-11-09T05:02:02;94227.34;;;13.83;100.00
19783;BME280;10051;40.294;-3.754;2022-11-09T05:04:27;94266.31;;;14.15;100.00
19783;BME280;10051;40.294;-3.754;2022-11-09T05:06:53;94216.50;;;13.85;100.00
19783;BME280;10051;40.294;-3.754;2022-11-09T05:09:18;94240.50;;;14.11;100.00
19783;BME280;10051;40.294;-3.754;2022-11-09T05:11:44;94256.81;;;14.13;100.00
19783;BME280;10051;40.294;-3.754;2022-11-09T05:14:09;94217.06;;;13.82;100.00
19783;BME280;10051;40.294;-3.754;2022-11-09T05:16:34;94194.41;;;13.67;100.00
19783;BME280;10051;40.294;-3.754;2022-11-09T05:19:00;94252.66;;;13.98;100.00
19783;BME280;10051;40.294;-3.754;2022-11-09T05:21:25;94257.19;;;13.98;100.00
19783;BME280;10051;40.294;-3.754;2022-11-09T05:23:51;94251.53;;;14.13;100.00
19783;BME280;10051;40.294;-3.754;2022-11-09T05:26:27;94273.56;;;14.23;100.00
19783;BME280;10051;40.294;-3.754;2022-11-09T05:28:53;94210.06;;;13.63;100.00
19783;BME280;10051;40.294;-3.754;2022-11-09T05:31:19;94209.88;;;13.60;100.00
19783;BME280;10051;40.294;-3.754;2022-11-09T05:33:47;94254.56;;;13.84;100.00
19783;BME280;10051;40.294;-3.754;2022-11-09T05:36:13;94260.81;;;13.88;100.00
19783;BME280;10051;40.294;-3.754;2022-11-09T05:38:39;94287.69;;;14.18;100.00
19783;BME280;10051;40.294;-3.754;2022-11-09T05:41:04;94230.78;;;13.84;100.00
19783;BME280;10051;40.294;-3.754;2022-11-09T05:43:30;94257.25;;;14.07;100.00
19783;BME280;10051;40.294;-3.754;2022-11-09T05:45:55;94258.34;;;13.92;100.00
19783;BME280;10051;40.294;-3.754;2022-11-09T05:48:21;94253.72;;;13.97;100.00
19783;BME280;10051;40.294;-3.754;2022-11-09T05:50:46;94244.66;;;13.90;100.00
19783;BME280;10051;40.294;-3.754;2022-11-09T05:53:11;94295.41;;;14.15;100.00
19783;BME280;10051;40.294;-3.754;2022-11-09T05:55:37;94277.03;;;14.09;100.00
19783;BME280;10051;40.294;-3.754;2022-11-09T05:58:03;94285.53;;;14.20;100.00
19783;BME280;10051;40.294;-3.754;2022-11-09T06:00:28;94247.84;;;14.01;100.00
19783;BME280;10051;40.294;-3.754;2022-11-09T06:03:03;94258.66;;;13.90;100.00
19783;BME280;10051;40.294;-3.754;2022-11-09T06:05:36;94299.44;;;14.12;100.00
19783;BME280;10051;40.294;-3.754;2022-11-09T06:08:07;94298.06;;;14.15;100.00
19783;BME280;10051;40.294;-3.754;2022-11-09T06:10:32;94309.78;;;14.36;100.00
19783;BME280;10051;40.294;-3.754;2022-11-09T06:12:58;94292.97;;;14.18;100.00
19783;BME280;10051;40.294;-3.754;2022-11-09T06:15:27;94301.56;;;14.24;100.00
19783;BME280;10051;40.294;-3.754;2022-11-09T06:17:53;94327.72;;;14.25;100.00
19783;BME280;10051;40.294;-3.754;2022-11-09T06:20:23;94297.28;;;14.14;100.00
19783;BME280;10051;40.294;-3.754;2022-11-09T06:22:54;94284.00;;;14.05;100.00
19783;BME280;10051;40.294;-3.754;2022-11-09T06:25:21;94316.66;;;14.23;100.00
19783;BME280;10051;40.294;-3.754;2022-11-09T06:27:46;94329.41;;;14.21;100.00
19783;BME280;10051;40.294;-3.754;2022-11-09T06:30:13;94323.56;;;14.10;100.00
19783;BME280;10051;40.294;-3.754;2022-11-09T06:32:38;94331.75;;;14.09;100.00
19783;BME280;10051;40.294;-3.754;2022-11-09T06:35:04;94285.47;;;13.83;100.00
19783;BME280;10051;40.294;-3.754;2022-11-09T06:37:30;94313.19;;;14.00;100.00
19783;BME280;10051;40.294;-3.754;2022-11-09T06:39:55;94307.50;;;13.93;100.00
19783;BME280;10051;40.294;-3.754;2022-11-09T06:42:20;94300.38;;;13.79;100.00
19783;BME280;10051;40.294;-3.754;2022-11-09T06:44:46;94317.00;;;13.80;100.00
19783;BME280;10051;40.294;-3.754;2022-11-09T06:47:11;94302.03;;;13.61;100.00
19783;BME280;10051;40.294;-3.754;2022-11-09T06:49:37;94313.75;;;13.69;100.00
19783;BME280;10051;40.294;-3.754;2022-11-09T06:52:02;94297.91;;;13.55;100.00
19783;BME280;10051;40.294;-3.754;2022-11-09T06:54:28;94300.38;;;13.65;100.00
19783;BME280;10051;40.294;-3.754;2022-11-09T06:56:54;94323.78;;;13.86;100.00
19783;BME280;10051;40.294;-3.754;2022-11-09T06:59:20;94308.19;;;13.85;100.00
19783;BME280;10051;40.294;-3.754;2022-11-09T07:01:45;94333.94;;;13.79;100.00
19783;BME280;10051;40.294;-3.754;2022-11-09T07:04:14;94327.50;;;13.85;100.00
19783;BME280;10051;40.294;-3.754;2022-11-09T07:06:40;94331.28;;;13.93;100.00
19783;BME280;10051;40.294;-3.754;2022-11-09T07:09:07;94294.41;;;13.60;100.00
19783;BME280;10051;40.294;-3.754;2022-11-09T07:11:32;94324.53;;;13.87;100.00
19783;BME280;10051;40.294;-3.754;2022-11-09T07:13:58;94336.50;;;13.84;100.00
19783;BME280;10051;40.294;-3.754;2022-11-09T07:16:24;94306.81;;;13.59;100.00
19783;BME280;10051;40.294;-3.754;2022-11-09T07:18:49;94334.34;;;13.86;100.00
19783;BME280;10051;40.294;-3.754;2022-11-09T07:21:15;94327.09;;;13.92;100.00
19783;BME280;10051;40.294;-3.754;2022-11-09T07:23:41;94313.78;;;13.83;100.00
19783;BME280;10051;40.294;-3.754;2022-11-09T07:26:07;94295.97;;;13.75;100.00
19783;BME280;10051;40.294;-3.754;2022-11-09T07:28:33;94303.59;;;13.76;100.00
19783;BME280;10051;40.294;-3.754;2022-11-09T07:30:58;94325.44;;;13.82;100.00
19783;BME280;10051;40.294;-3.754;2022-11-09T07:33:24;94346.06;;;13.94;100.00
19783;BME280;10051;40.294;-3.754;2022-11-09T07:35:50;94328.66;;;13.65;100.00
19783;BME280;10051;40.294;-3.754;2022-11-09T07:38:16;94354.19;;;13.97;100.00
19783;BME280;10051;40.294;-3.754;2022-11-09T07:40:44;94347.81;;;13.98;100.00
19783;BME280;10051;40.294;-3.754;2022-11-09T07:43:10;94323.88;;;13.81;100.00
19783;BME280;10051;40.294;-3.754;2022-11-09T07:45:36;94349.13;;;13.87;100.00
19783;BME280;10051;40.294;-3.754;2022-11-09T07:48:08;94351.88;;;13.82;100.00
19783;BME280;10051;40.294;-3.754;2022-11-09T07:50:34;94349.59;;;13.75;100.00
19783;BME280;10051;40.294;-3.754;2022-11-09T07:53:01;94362.53;;;13.77;100.00
19783;BME280;10051;40.294;-3.754;2022-11-09T07:55:27;94330.50;;;13.64;100.00
19783;BME280;10051;40.294;-3.754;2022-11-09T07:58:05;94369.47;;;13.73;100.00
19783;BME280;10051;40.294;-3.754;2022-11-09T08:00:32;94379.94;;;13.64;100.00
19783;BME280;10051;40.294;-3.754;2022-11-09T08:02:58;94364.75;;;13.56;100.00
19783;BME280;10051;40.294;-3.754;2022-11-09T08:05:25;94401.28;;;13.67;100.00
19783;BME280;10051;40.294;-3.754;2022-11-09T08:07:57;94377.16;;;13.55;100.00
19783;BME280;10051;40.294;-3.754;2022-11-09T08:10:24;94418.03;;;13.77;100.00
19783;BME280;10051;40.294;-3.754;2022-11-09T08:12:58;94411.66;;;13.64;100.00
19783;BME280;10051;40.294;-3.754;2022-11-09T08:15:24;94412.75;;;13.77;100.00
19783;BME280;10051;40.294;-3.754;2022-11-09T08:17:49;94412.56;;;13.87;100.00
19783;BME280;10051;40.294;-3.754;2022-11-09T08:20:16;94395.41;;;13.71;100.00
19783;BME280;10051;40.294;-3.754;2022-11-09T08:22:42;94418.13;;;13.86;100.00
19783;BME280;10051;40.294;-3.754;2022-11-09T08:25:09;94424.97;;;13.73;100.00
19783;BME280;10051;40.294;-3.754;2022-11-09T08:27:34;94424.28;;;13.67;100.00
19783;BME280;10051;40.294;-3.754;2022-11-09T08:30:06;94425.13;;;13.62;100.00
19783;BME280;10051;40.294;-3.754;2022-11-09T08:32:33;94428.84;;;13.61;100.00
19783;BME280;10051;40.294;-3.754;2022-11-09T08:34:58;94399.59;;;13.44;100.00
19783;BME280;10051;40.294;-3.754;2022-11-09T08:37:24;94422.66;;;13.52;100.00
19783;BME280;10051;40.294;-3.754;2022-11-09T08:39:49;94460.72;;;13.84;100.00
19783;BME280;10051;40.294;-3.754;2022-11-09T08:42:15;94461.88;;;13.78;100.00
19783;BME280;10051;40.294;-3.754;2022-11-09T08:44:40;94462.78;;;13.87;100.00
19783;BME280;10051;40.294;-3.754;2022-11-09T08:47:05;94464.94;;;13.85;100.00
19783;BME280;10051;40.294;-3.754;2022-11-09T08:49:31;94485.00;;;13.86;100.00
19783;BME280;10051;40.294;-3.754;2022-11-09T08:51:56;94467.03;;;13.69;100.00
19783;BME280;10051;40.294;-3.754;2022-11-09T08:54:22;94472.38;;;13.83;100.00
19783;BME280;10051;40.294;-3.754;2022-11-09T08:56:47;94489.97;;;13.74;100.00
19783;BME280;10051;40.294;-3.754;2022-11-09T08:59:13;94477.16;;;13.81;100.00
19783;BME280;10051;40.294;-3.754;2022-11-09T09:01:38;94478.34;;;13.89;100.00
19783;BME280;10051;40.294;-3.754;2022-11-09T09:04:04;94496.50;;;14.23;100.00
19783;BME280;10051;40.294;-3.754;2022-11-09T09:06:29;94491.31;;;14.18;100.00
19783;BME280;10051;40.294;-3.754;2022-11-09T09:08:55;94480.63;;;14.09;100.00
19783;BME280;10051;40.294;-3.754;2022-11-09T09:11:20;94500.81;;;14.19;100.00
19783;BME280;10051;40.294;-3.754;2022-11-09T09:13:45;94488.44;;;14.01;100.00
19783;BME280;10051;40.294;-3.754;2022-11-09T09:16:12;94497.25;;;14.10;100.00
19783;BME280;10051;40.294;-3.754;2022-11-09T09:18:38;94505.69;;;14.12;100.00
19783;BME280;10051;40.294;-3.754;2022-11-09T09:21:05;94506.69;;;14.16;100.00
19783;BME280;10051;40.294;-3.754;2022-11-09T09:23:31;94504.22;;;14.06;100.00
19783;BME280;10051;40.294;-3.754;2022-11-09T09:25:56;94529.13;;;14.33;100.00
19783;BME280;10051;40.294;-3.754;2022-11-09T09:28:22;94523.34;;;14.31;100.00
19783;BME280;10051;40.294;-3.754;2022-11-09T09:30:47;94522.78;;;14.34;100.00
19783;BME280;10051;40.294;-3.754;2022-11-09T09:33:13;94526.09;;;14.25;100.00
19783;BME280;10051;40.294;-3.754;2022-11-09T09:35:38;94538.41;;;14.30;100.00
19783;BME280;10051;40.294;-3.754;2022-11-09T09:38:04;94522.53;;;14.02;100.00
19783;BME280;10051;40.294;-3.754;2022-11-09T09:43:31;94536.84;;;14.15;100.00
19783;BME280;10051;40.294;-3.754;2022-11-09T09:45:59;94540.06;;;14.12;100.00
19783;BME280;10051;40.294;-3.754;2022-11-09T09:48:49;94532.22;;;14.07;100.00
19783;BME280;10051;40.294;-3.754;2022-11-09T09:51:26;94545.81;;;14.00;100.00
19783;BME280;10051;40.294;-3.754;2022-11-09T09:54:06;94512.66;;;13.75;100.00
19783;BME280;10051;40.294;-3.754;2022-11-09T09:56:39;94534.34;;;13.91;100.00
19783;BME280;10051;40.294;-3.754;2022-11-09T10:01:57;94536.59;;;13.97;100.00
19783;BME280;10051;40.294;-3.754;2022-11-09T10:04:35;94537.59;;;14.02;100.00
19783;BME280;10051;40.294;-3.754;2022-11-09T10:07:36;94558.00;;;14.15;100.00
19783;BME280;10051;40.294;-3.754;2022-11-09T10:31:43;94530.19;;;13.51;100.00
19783;BME280;10051;40.294;-3.754;2022-11-09T10:34:17;94524.00;;;13.42;100.00
19783;BME280;10051;40.294;-3.754;2022-11-09T10:39:20;94540.97;;;13.55;100.00
19783;BME280;10051;40.294;-3.754;2022-11-09T10:41:47;94541.00;;;13.69;100.00
19783;BME280;10051;40.294;-3.754;2022-11-09T10:44:16;94552.53;;;13.59;100.00
19783;BME280;10051;40.294;-3.754;2022-11-09T10:47:18;94556.69;;;13.65;100.00
19783;BME280;10051;40.294;-3.754;2022-11-09T10:49:44;94527.09;;;13.63;100.00
19783;BME280;10051;40.294;-3.754;2022-11-09T10:52:31;94549.91;;;13.92;100.00
19783;BME280;10051;40.294;-3.754;2022-11-09T10:55:36;94543.81;;;13.78;100.00
19783;BME280;10051;40.294;-3.754;2022-11-09T10:58:37;94556.53;;;13.76;100.00
19783;BME280;10051;40.294;-3.754;2022-11-09T11:01:14;94542.00;;;13.73;100.00
19783;BME280;10051;40.294;-3.754;2022-11-09T11:03:42;94543.75;;;13.64;100.00
19783;BME280;10051;40.294;-3.754;2022-11-09T11:06:26;94549.66;;;13.75;100.00
19783;BME280;10051;40.294;-3.754;2022-11-09T11:11:30;94558.16;;;14.05;100.00
19783;BME280;10051;40.294;-3.754;2022-11-09T11:14:12;94555.03;;;14.03;100.00
19783;BME280;10051;40.294;-3.754;2022-11-09T11:16:39;94566.13;;;14.19;100.00
19783;BME280;10051;40.294;-3.754;2022-11-09T11:19:31;94565.66;;;14.31;100.00
19783;BME280;10051;40.294;-3.754;2022-11-09T11:22:16;94567.53;;;14.44;100.00
19783;BME280;10051;40.294;-3.754;2022-11-09T11:24:59;94570.38;;;14.34;100.00
19783;BME280;10051;40.294;-3.754;2022-11-09T11:27:49;94562.44;;;14.34;99.95
19783;BME280;10051;40.294;-3.754;2022-11-09T11:30:20;94542.31;;;14.19;98.70
19783;BME280;10051;40.294;-3.754;2022-11-09T11:32:47;94557.75;;;14.31;100.00
19783;BME280;10051;40.294;-3.754;2022-11-09T11:35:21;94528.31;;;14.18;99.70
19783;BME280;10051;40.294;-3.754;2022-11-09T11:41:09;94516.06;;;14.08;96.64
19783;BME280;10051;40.294;-3.754;2022-11-09T11:46:46;94513.72;;;14.21;94.76
19783;BME280;10051;40.294;-3.754;2022-11-09T11:54:36;94554.44;;;14.67;93.94
19783;BME280;10051;40.294;-3.754;2022-11-09T12:08:09;94536.94;;;16.13;86.87
19783;BME280;10051;40.294;-3.754;2022-11-09T12:11:06;94533.66;;;16.39;86.55
19783;BME280;10051;40.294;-3.754;2022-11-09T12:16:43;94503.31;;;16.80;82.72
19783;BME280;10051;40.294;-3.754;2022-11-09T12:19:22;94536.94;;;16.93;80.00
19783;BME280;10051;40.294;-3.754;2022-11-09T12:22:36;94525.66;;;16.88;79.62
19783;BME280;10051;40.294;-3.754;2022-11-09T12:25:16;94531.97;;;17.01;77.01
19783;BME280;10051;40.294;-3.754;2022-11-09T12:33:20;94536.84;;;17.16;77.05
19783;BME280;10051;40.294;-3.754;2022-11-09T12:36:00;94507.91;;;16.97;74.77
19783;BME280;10051;40.294;-3.754;2022-11-09T12:38:51;94529.34;;;17.09;73.72
19783;BME280;10051;40.294;-3.754;2022-11-09T12:41:21;94525.31;;;17.30;73.59
19783;BME280;10051;40.294;-3.754;2022-11-09T12:43:53;94514.97;;;17.46;74.58
19783;BME280;10051;40.294;-3.754;2022-11-09T12:46:26;94524.34;;;17.78;73.56
19783;BME280;10051;40.294;-3.754;2022-11-09T12:48:55;94512.91;;;17.78;69.72
19783;BME280;10051;40.294;-3.754;2022-11-09T12:51:23;94528.72;;;18.01;69.02
19783;BME280;10051;40.294;-3.754;2022-11-09T12:53:48;94522.00;;;17.86;68.84
19783;BME280;10051;40.294;-3.754;2022-11-09T12:56:31;94497.91;;;17.73;70.30
19783;BME280;10051;40.294;-3.754;2022-11-09T12:59:34;94540.13;;;18.01;69.69
19783;BME280;10051;40.294;-3.754;2022-11-09T13:02:00;94530.25;;;18.10;70.14
19783;BME280;10051;40.294;-3.754;2022-11-09T13:04:27;94470.22;;;17.74;68.36
19783;BME280;10051;40.294;-3.754;2022-11-09T13:09:34;94524.84;;;18.37;68.17
19783;BME280;10051;40.294;-3.754;2022-11-09T13:12:15;94506.97;;;18.37;69.05
19783;BME280;10051;40.294;-3.754;2022-11-09T13:14:42;94510.91;;;18.40;68.69
19783;BME280;10051;40.294;-3.754;2022-11-09T13:19:50;94519.88;;;18.65;67.44
19783;BME280;10051;40.294;-3.754;2022-11-09T13:24:57;94510.34;;;18.64;65.50
19783;BME280;10051;40.294;-3.754;2022-11-09T13:29:57;94488.09;;;18.60;66.77
19783;BME280;10051;40.294;-3.754;2022-11-09T13:32:28;94504.38;;;18.67;64.12
19783;BME280;10051;40.294;-3.754;2022-11-09T13:34:59;94492.50;;;18.56;64.49
19783;BME280;10051;40.294;-3.754;2022-11-09T13:43:02;94516.56;;;18.68;62.06
19783;BME280;10051;40.294;-3.754;2022-11-09T13:45:40;94512.81;;;18.69;63.31
19783;BME280;10051;40.294;-3.754;2022-11-09T13:48:26;94506.84;;;18.72;63.25
19783;BME280;10051;40.294;-3.754;2022-11-09T13:50:56;94498.22;;;18.76;63.51
19783;BME280;10051;40.294;-3.754;2022-11-09T13:56:17;94499.72;;;18.85;63.37
19783;BME280;10051;40.294;-3.754;2022-11-09T13:58:44;94472.53;;;18.71;63.40
19783;BME280;10051;40.294;-3.754;2022-11-09T14:01:47;94517.16;;;19.04;63.24
19783;BME280;10051;40.294;-3.754;2022-11-09T14:04:25;94463.59;;;18.76;61.71
19783;BME280;10051;40.294;-3.754;2022-11-09T14:07:05;94517.84;;;18.92;61.34
19783;BME280;10051;40.294;-3.754;2022-11-09T14:12:31;94515.25;;;18.53;63.60
19783;BME280;10051;40.294;-3.754;2022-11-09T14:15:16;94517.78;;;18.41;63.98
19783;BME280;10051;40.294;-3.754;2022-11-09T14:22:57;94517.28;;;18.09;64.76
19783;BME280;10051;40.294;-3.754;2022-11-09T14:25:23;94517.72;;;18.20;63.45
19783;BME280;10051;40.294;-3.754;2022-11-09T14:27:53;94516.28;;;18.22;63.49
19783;BME280;10051;40.294;-3.754;2022-11-09T14:30:27;94493.13;;;18.14;62.93
19783;BME280;10051;40.294;-3.754;2022-11-09T14:32:54;94521.00;;;18.17;63.17
19783;BME280;10051;40.294;-3.754;2022-11-09T14:37:53;94501.16;;;18.05;63.16
19783;BME280;10051;40.294;-3.754;2022-11-09T14:40:20;94521.00;;;18.17;63.87
19783;BME280;10051;40.294;-3.754;2022-11-09T14:43:35;94509.09;;;18.14;63.82
19783;BME280;10051;40.294;-3.754;2022-11-09T14:45:52;94490.53;;;17.88;65.06
19783;BME280;10051;40.294;-3.754;2022-11-09T14:48:20;94523.84;;;18.11;65.22
19783;BME280;10051;40.294;-3.754;2022-11-09T14:50:46;94521.63;;;17.96;65.35
19783;BME280;10051;40.294;-3.754;2022-11-09T14:55:53;94517.94;;;17.62;67.99
19783;BME280;10051;40.294;-3.754;2022-11-09T14:58:22;94518.75;;;17.62;68.67
19783;BME280;10051;40.294;-3.754;2022-11-09T15:03:43;94513.72;;;17.61;69.25
19783;BME280;10051;40.294;-3.754;2022-11-09T15:06:12;94539.03;;;17.84;68.37
19783;BME280;10051;40.294;-3.754;2022-11-09T15:08:52;94535.31;;;17.68;68.78
19783;BME280;10051;40.294;-3.754;2022-11-09T15:11:18;94540.47;;;17.64;69.34
19783;BME280;10051;40.294;-3.754;2022-11-09T15:13:45;94550.63;;;17.53;69.67
19783;BME280;10051;40.294;-3.754;2022-11-09T15:16:19;94538.44;;;17.35;70.19
19783;BME280;10051;40.294;-3.754;2022-11-09T15:18:46;94533.09;;;17.17;71.25
19783;BME280;10051;40.294;-3.754;2022-11-09T15:26:35;94547.31;;;17.13;75.59
19783;BME280;10051;40.294;-3.754;2022-11-09T15:29:19;94547.00;;;16.97;79.04